createdAt,value
2022-10-23T00:01:56.361Z,6.49
2022-10-23T00:04:27.711Z,6.72
2022-10-23T00:06:58.982Z,8.33
2022-10-23T00:09:27.322Z,9.42
2022-10-23T00:11:56.082Z,9.85
2022-10-23T00:14:25.896Z,8.94
2022-10-23T00:16:53.709Z,7.49
2022-10-23T00:19:22.588Z,6.59
2022-10-23T00:21:50.405Z,7.52
2022-10-23T00:24:23.362Z,8.73
2022-10-23T00:26:51.403Z,9.73
2022-10-23T00:29:22.005Z,10.04
2022-10-23T00:31:51.408Z,8.85
2022-10-23T00:34:19.755Z,7.37
2022-10-23T00:36:48.893Z,6.58
2022-10-23T00:39:18.179Z,7.60
2022-10-23T00:41:50.942Z,8.94
2022-10-23T00:44:18.873Z,9.65
2022-10-23T00:46:48.575Z,8.49
2022-10-23T00:49:16.744Z,7.18
2022-10-23T00:51:51.933Z,6.24
2022-10-23T00:54:25.874Z,6.80
2022-10-23T00:57:01.556Z,8.48
2022-10-23T00:59:34.283Z,9.70
2022-10-23T01:02:02.641Z,10.18
2022-10-23T01:04:34.888Z,9.11
2022-10-23T01:07:14.217Z,7.69
2022-10-23T01:09:50.325Z,6.60
2022-10-23T01:12:33.595Z,5.81
2022-10-23T01:15:20.409Z,5.86
2022-10-23T01:18:31.718Z,7.90
2022-10-23T01:21:16.035Z,9.65
2022-10-23T01:24:21.414Z,10.17
2022-10-23T01:27:04.729Z,8.58
2022-10-23T01:29:51.027Z,7.22
2022-10-23T01:32:58.457Z,6.31
2022-10-23T01:35:35.949Z,6.42
2022-10-23T01:38:52.946Z,8.30
2022-10-23T01:41:31.725Z,10.01
2022-10-23T01:44:18.066Z,10.32
2022-10-23T01:46:50.281Z,9.00
2022-10-23T01:49:21.905Z,7.76
2022-10-23T01:52:00.392Z,6.76
2022-10-23T01:54:38.809Z,6.57
2022-10-23T01:57:14.859Z,8.30
2022-10-23T01:59:55.072Z,9.57
2022-10-23T02:05:26.020Z,8.73
2022-10-23T02:07:55.490Z,7.39
2022-10-23T02:10:40.642Z,6.55
2022-10-23T02:13:36.765Z,6.55
2022-10-23T02:16:20.488Z,8.55
2022-10-23T02:19:00.313Z,9.83
2022-10-23T02:21:40.132Z,10.62
2022-10-23T02:24:20.377Z,9.85
2022-10-23T02:27:02.620Z,8.37
2022-10-23T02:29:47.157Z,7.22
2022-10-23T02:32:18.132Z,6.38
2022-10-23T02:34:46.049Z,6.13
2022-10-23T02:37:18.248Z,7.65
2022-10-23T02:39:48.421Z,9.31
2022-10-23T02:42:28.916Z,10.28
2022-10-23T02:45:31.654Z,10.37
2022-10-23T02:48:08.706Z,8.79
2022-10-23T02:51:37.632Z,7.61
2022-10-23T02:54:14.538Z,6.48
2022-10-23T02:56:58.147Z,6.36
2022-10-23T02:59:37.311Z,8.21
2022-10-23T03:02:56.030Z,9.54
2022-10-23T03:05:38.518Z,10.41
2022-10-23T03:08:10.549Z,9.33
2022-10-23T03:10:39.969Z,7.96
2022-10-23T03:13:14.924Z,6.99
2022-10-23T03:15:44.963Z,6.71
2022-10-23T03:18:12.852Z,8.18
2022-10-23T03:20:44.072Z,9.61
2022-10-23T03:23:14.178Z,10.30
2022-10-23T03:25:42.687Z,9.24
2022-10-23T03:28:11.683Z,7.88
2022-10-23T03:30:40.280Z,6.85
2022-10-23T03:33:09.836Z,6.52
2022-10-23T03:35:38.323Z,7.92
2022-10-23T03:38:07.207Z,9.32
2022-10-23T03:40:35.488Z,10.38
2022-10-23T03:43:05.323Z,10.16
2022-10-23T03:45:32.978Z,8.84
2022-10-23T03:48:01.571Z,7.77
2022-10-23T03:50:29.706Z,6.98
2022-10-23T03:52:57.531Z,6.36
2022-10-23T03:55:28.929Z,6.32
2022-10-23T03:57:56.834Z,7.88
2022-10-23T04:00:24.809Z,9.39
2022-10-23T04:02:53.017Z,10.32
2022-10-23T04:05:21.353Z,10.44
2022-10-23T04:07:49.318Z,9.38
2022-10-23T04:10:17.677Z,8.15
2022-10-23T04:12:47.242Z,7.18
2022-10-23T04:15:22.505Z,6.87
2022-10-23T04:17:51.661Z,8.27
2022-10-23T04:20:19.405Z,9.44
2022-10-23T04:22:49.416Z,10.39
2022-10-23T04:25:20.814Z,10.40
2022-10-23T04:27:54.874Z,9.19
2022-10-23T04:30:25.796Z,7.94
2022-10-23T04:32:55.081Z,7.02
2022-10-23T04:35:23.559Z,6.34
2022-10-23T04:37:53.575Z,6.59
2022-10-23T04:40:22.348Z,8.20
2022-10-23T04:42:51.730Z,9.40
2022-10-23T04:45:21.329Z,10.29
2022-10-23T04:47:53.417Z,10.52
2022-10-23T04:50:25.206Z,9.38
2022-10-23T04:52:57.581Z,8.20
2022-10-23T04:55:26.533Z,7.30
2022-10-23T04:57:54.789Z,6.64
2022-10-23T05:00:22.803Z,6.62
2022-10-23T05:02:51.922Z,8.17
2022-10-23T05:05:23.404Z,9.66
2022-10-23T05:07:51.121Z,10.50
2022-10-23T05:10:19.451Z,10.76
2022-10-23T05:12:50.333Z,9.67
2022-10-23T05:15:21.388Z,8.48
2022-10-23T05:17:58.026Z,7.58
2022-10-23T05:20:44.720Z,7.36
2022-10-23T05:23:17.953Z,9.01
2022-10-23T05:25:47.771Z,10.36
2022-10-23T05:28:16.210Z,10.85
2022-10-23T05:30:44.713Z,9.83
2022-10-23T05:33:14.364Z,8.64
2022-10-23T05:35:45.371Z,7.72
2022-10-23T05:38:22.021Z,7.02
2022-10-23T05:40:54.018Z,6.54
2022-10-23T05:43:22.136Z,6.63
2022-10-23T05:45:49.769Z,8.37
2022-10-23T05:48:30.005Z,9.95
2022-10-23T05:51:09.470Z,10.59
2022-10-23T05:53:40.309Z,9.36
2022-10-23T05:56:10.654Z,8.10
2022-10-23T05:58:44.293Z,7.54
2022-10-23T06:01:15.261Z,8.90
2022-10-23T06:03:45.007Z,10.19
2022-10-23T06:06:15.415Z,10.64
2022-10-23T06:08:53.698Z,9.47
2022-10-23T06:11:21.852Z,8.27
2022-10-23T06:13:51.446Z,7.38
2022-10-23T06:16:27.662Z,7.12
2022-10-23T06:19:12.609Z,8.90
2022-10-23T06:21:42.779Z,10.28
2022-10-23T06:24:12.434Z,10.85
2022-10-23T06:26:43.485Z,9.85
2022-10-23T06:29:11.686Z,8.69
2022-10-23T06:31:44.113Z,7.75
2022-10-23T06:34:15.679Z,8.39
2022-10-23T06:36:43.800Z,9.98
2022-10-23T06:39:15.373Z,10.67
2022-10-23T06:41:44.670Z,9.86
2022-10-23T06:44:13.216Z,8.64
2022-10-23T06:46:42.394Z,7.66
2022-10-23T06:49:10.582Z,6.95
2022-10-23T06:51:42.822Z,7.08
2022-10-23T06:54:13.123Z,8.79
2022-10-23T06:56:41.613Z,10.20
2022-10-23T06:59:09.635Z,10.97
2022-10-23T07:01:38.433Z,10.77
2022-10-23T07:04:08.062Z,9.33
2022-10-23T07:06:36.654Z,8.04
2022-10-23T07:09:05.489Z,7.21
2022-10-23T07:11:35.090Z,6.95
2022-10-23T07:14:06.162Z,8.54
2022-10-23T07:16:34.469Z,10.06
2022-10-23T07:19:02.310Z,10.92
2022-10-23T07:21:35.734Z,10.84
2022-10-23T07:24:07.034Z,9.62
2022-10-23T07:26:36.867Z,8.49
2022-10-23T07:29:07.922Z,7.60
2022-10-23T07:31:36.109Z,8.22
2022-10-23T07:34:04.500Z,9.93
2022-10-23T07:36:35.772Z,11.12
2022-10-23T07:39:04.223Z,11.48
2022-10-23T07:41:32.222Z,10.37
2022-10-23T07:44:00.139Z,9.20
2022-10-23T07:46:29.058Z,8.29
2022-10-23T07:48:57.942Z,7.58
2022-10-23T07:51:28.476Z,7.25
2022-10-23T07:53:57.609Z,8.64
2022-10-23T07:56:31.605Z,10.20
2022-10-23T07:59:02.749Z,11.35
2022-10-23T08:01:38.762Z,11.41
2022-10-23T08:04:07.007Z,10.02
2022-10-23T08:06:36.593Z,8.82
2022-10-23T08:09:07.002Z,7.91
2022-10-23T08:11:36.003Z,7.62
2022-10-23T08:14:07.928Z,9.14
2022-10-23T08:16:40.929Z,10.77
2022-10-23T08:19:09.923Z,11.38
2022-10-23T08:21:39.655Z,10.28
2022-10-23T08:24:13.817Z,9.09
2022-10-23T08:26:42.152Z,8.23
2022-10-23T08:29:12.924Z,7.62
2022-10-23T08:31:43.392Z,8.09
2022-10-23T08:34:11.249Z,9.82
2022-10-23T08:36:43.967Z,11.13
2022-10-23T08:39:15.168Z,11.46
2022-10-23T08:41:52.549Z,10.44
2022-10-23T08:44:46.872Z,9.18
2022-10-23T08:47:28.744Z,8.14
2022-10-23T08:50:06.781Z,7.49
2022-10-23T08:52:49.625Z,7.40
2022-10-23T08:55:33.649Z,9.20
2022-10-23T08:58:11.609Z,10.42
2022-10-23T09:00:42.593Z,11.15
2022-10-23T09:03:13.416Z,10.87
2022-10-23T09:06:13.644Z,9.59
2022-10-23T09:09:22.965Z,8.38
2022-10-23T09:12:15.493Z,8.86
2022-10-23T09:15:23.902Z,10.61
2022-10-23T09:18:00.683Z,11.78
2022-10-23T09:20:34.607Z,11.85
2022-10-23T09:23:23.305Z,10.55
2022-10-23T09:25:58.177Z,9.08
2022-10-23T09:29:08.606Z,8.17
2022-10-23T09:31:51.363Z,8.25
2022-10-23T09:34:27.255Z,10.16
2022-10-23T09:37:31.265Z,11.52
2022-10-23T09:40:19.234Z,11.48
2022-10-23T09:43:04.069Z,9.90
2022-10-23T09:45:36.054Z,8.80
2022-10-23T09:48:15.246Z,9.82
2022-10-23T09:50:56.212Z,11.31
2022-10-23T09:53:36.935Z,11.76
2022-10-23T09:56:25.575Z,10.40
2022-10-23T09:59:06.802Z,9.13
2022-10-23T10:01:52.350Z,8.18
2022-10-23T10:04:39.756Z,8.05
2022-10-23T10:07:31.245Z,9.75
2022-10-23T10:10:13.864Z,11.25
2022-10-23T10:12:54.908Z,11.36
2022-10-23T10:15:47.117Z,9.94
2022-10-23T10:18:40.041Z,8.74
2022-10-23T10:21:30.232Z,8.50
2022-10-23T10:24:13.883Z,10.05
2022-10-23T10:26:56.839Z,11.47
2022-10-23T10:29:47.098Z,11.67
2022-10-23T10:32:28.524Z,10.12
2022-10-23T10:35:43.217Z,8.99
2022-10-23T10:38:34.042Z,8.66
2022-10-23T10:41:26.295Z,10.45
2022-10-23T10:44:18.832Z,11.27
2022-10-23T10:47:18.607Z,10.34
2022-10-23T10:50:12.950Z,9.06
2022-10-23T10:53:23.714Z,9.67
2022-10-23T10:55:58.276Z,11.43
2022-10-23T10:58:52.935Z,11.83
2022-10-23T11:01:49.833Z,10.66
2022-10-23T11:04:56.086Z,9.47
2022-10-23T11:07:38.529Z,8.54
2022-10-23T11:10:26.472Z,8.55
2022-10-23T11:12:56.001Z,10.29
2022-10-23T11:15:39.350Z,11.64
2022-10-23T11:18:23.389Z,12.21
2022-10-23T11:21:39.895Z,10.92
2022-10-23T11:24:23.963Z,9.40
2022-10-23T11:27:50.949Z,9.05
2022-10-23T11:31:00.568Z,10.68
2022-10-23T11:33:59.000Z,11.72
2022-10-23T11:36:56.529Z,10.93
2022-10-23T11:39:41.134Z,9.64
2022-10-23T11:42:08.853Z,8.79
2022-10-23T11:44:51.481Z,8.70
2022-10-23T11:47:39.980Z,10.40
2022-10-23T11:50:08.399Z,11.86
2022-10-23T11:53:27.334Z,12.36
2022-10-23T11:56:01.177Z,10.88
2022-10-23T11:58:52.582Z,9.88
2022-10-23T12:01:43.928Z,9.05
2022-10-23T12:04:35.090Z,8.46
2022-10-23T12:07:18.039Z,8.83
2022-10-23T12:09:55.960Z,10.84
2022-10-23T12:12:34.268Z,12.24
2022-10-23T12:15:21.551Z,12.50
2022-10-23T12:17:54.186Z,11.07
2022-10-23T12:20:51.853Z,9.79
2022-10-23T12:24:13.406Z,9.54
2022-10-23T12:27:16.464Z,11.31
2022-10-23T12:30:22.816Z,11.79
2022-10-23T12:33:22.999Z,10.61
2022-10-23T12:36:22.834Z,9.46
2022-10-23T12:38:51.269Z,9.49
2022-10-23T12:41:36.831Z,11.11
2022-10-23T12:44:12.071Z,12.40
2022-10-23T12:46:47.094Z,12.81
2022-10-23T12:49:24.097Z,11.70
2022-10-23T12:52:04.833Z,10.35
2022-10-23T12:54:41.520Z,9.57
2022-10-23T12:57:33.732Z,10.61
2022-10-23T13:00:13.069Z,11.86
2022-10-23T13:02:41.092Z,12.06
2022-10-23T13:05:19.378Z,10.92
2022-10-23T13:07:49.290Z,9.78
2022-10-23T13:10:24.984Z,9.04
2022-10-23T13:13:02.706Z,9.86
2022-10-23T13:15:50.657Z,11.60
2022-10-23T13:18:22.950Z,12.76
2022-10-23T13:23:36.843Z,11.62
2022-10-23T13:26:36.599Z,10.44
2022-10-23T13:29:29.215Z,9.39
2022-10-23T13:32:11.590Z,8.72
2022-10-23T13:34:40.889Z,8.87
2022-10-23T13:37:33.631Z,10.66
2022-10-23T13:40:30.557Z,12.29
2022-10-23T13:42:59.242Z,12.65
2022-10-23T13:45:31.045Z,11.55
2022-10-23T13:48:16.274Z,10.40
2022-10-23T13:50:44.098Z,9.64
2022-10-23T13:53:13.468Z,9.06
2022-10-23T13:55:47.940Z,9.75
2022-10-23T13:58:15.984Z,11.43
2022-10-23T14:00:49.659Z,12.59
2022-10-23T14:03:19.663Z,12.98
2022-10-23T14:05:48.154Z,12.00
2022-10-23T14:10:57.498Z,10.15
2022-10-23T14:13:27.059Z,9.64
2022-10-23T14:15:58.947Z,10.45
2022-10-23T14:18:27.821Z,12.01
2022-10-23T14:20:59.377Z,12.97
2022-10-23T14:23:28.876Z,13.19
2022-10-23T14:26:12.130Z,12.01
2022-10-23T14:28:40.399Z,10.69
2022-10-23T14:31:18.241Z,9.81
2022-10-23T14:33:47.005Z,9.93
2022-10-23T14:36:15.650Z,11.54
2022-10-23T14:38:44.540Z,12.75
2022-10-23T14:41:18.192Z,13.16
2022-10-23T14:43:46.861Z,12.05
2022-10-23T14:46:21.613Z,10.81
2022-10-23T14:48:56.504Z,9.90
2022-10-23T14:51:31.593Z,9.25
2022-10-23T14:54:04.413Z,9.26
2022-10-23T14:56:42.870Z,10.99
2022-10-23T14:59:12.008Z,12.54
2022-10-23T15:01:48.258Z,13.12
2022-10-23T15:04:16.674Z,12.05
2022-10-23T15:06:47.661Z,10.97
2022-10-23T15:09:16.729Z,10.13
2022-10-23T15:11:46.481Z,9.49
2022-10-23T15:14:16.198Z,9.40
2022-10-23T15:16:44.335Z,11.06
2022-10-23T15:19:18.535Z,12.58
2022-10-23T15:21:49.836Z,13.14
2022-10-23T15:24:29.819Z,12.14
2022-10-23T15:27:00.288Z,11.01
2022-10-23T15:29:29.606Z,10.26
2022-10-23T15:32:02.373Z,9.68
2022-10-23T15:34:30.725Z,9.64
2022-10-23T15:37:03.670Z,11.28
2022-10-23T15:39:35.837Z,12.84
2022-10-23T15:42:08.251Z,13.36
2022-10-23T15:44:43.141Z,12.27
2022-10-23T15:47:21.561Z,11.19
2022-10-23T15:52:31.485Z,9.81
2022-10-23T15:54:59.621Z,9.39
2022-10-23T15:57:32.835Z,9.56
2022-10-23T16:00:05.778Z,11.31
2022-10-23T16:02:35.564Z,12.84
2022-10-23T16:05:07.525Z,13.37
2022-10-23T16:07:37.051Z,12.34
2022-10-23T16:10:07.394Z,11.20
2022-10-23T16:12:38.828Z,10.34
2022-10-23T16:15:16.927Z,9.67
2022-10-23T16:17:45.168Z,9.12
2022-10-23T16:20:14.329Z,9.09
2022-10-23T16:22:50.264Z,10.72
2022-10-23T16:25:20.327Z,12.33
2022-10-23T16:27:49.044Z,13.00
2022-10-23T16:30:30.577Z,12.00
2022-10-23T16:32:58.923Z,10.88
2022-10-23T16:35:31.207Z,10.05
2022-10-23T16:38:02.190Z,9.46
2022-10-23T16:40:36.720Z,9.27
2022-10-23T16:43:06.378Z,10.86
2022-10-23T16:45:42.501Z,12.46
2022-10-23T16:48:14.292Z,13.31
2022-10-23T16:50:43.309Z,12.66
2022-10-23T16:53:15.423Z,11.39
2022-10-23T16:55:53.797Z,10.35
2022-10-23T16:58:24.757Z,9.60
2022-10-23T17:01:06.297Z,9.50
2022-10-23T17:03:40.436Z,11.28
2022-10-23T17:06:15.532Z,12.83
2022-10-23T17:08:43.593Z,13.46
2022-10-23T17:11:45.601Z,12.62
2022-10-23T17:14:18.179Z,11.31
2022-10-23T17:16:52.031Z,10.47
2022-10-23T17:19:43.685Z,9.82
2022-10-23T17:22:17.819Z,9.84
2022-10-23T17:24:51.428Z,11.58
2022-10-23T17:27:22.319Z,12.95
2022-10-23T17:29:50.195Z,13.42
2022-10-23T17:32:23.403Z,12.42
2022-10-23T17:34:52.843Z,11.25
2022-10-23T17:37:22.648Z,10.39
2022-10-23T17:39:51.660Z,9.74
2022-10-23T17:42:26.200Z,9.23
2022-10-23T17:44:55.512Z,9.26
2022-10-23T17:47:25.476Z,10.97
2022-10-23T17:49:53.393Z,12.54
2022-10-23T17:52:30.551Z,13.59
2022-10-23T17:54:59.049Z,13.43
2022-10-23T17:57:32.394Z,12.15
2022-10-23T18:00:05.938Z,11.03
2022-10-23T18:02:34.004Z,10.18
2022-10-23T18:05:07.673Z,9.75
2022-10-23T18:07:35.553Z,11.14
2022-10-23T18:10:07.374Z,12.68
2022-10-23T18:12:43.248Z,13.38
2022-10-23T18:15:11.891Z,12.46
2022-10-23T18:17:41.539Z,11.40
2022-10-23T18:20:12.133Z,10.59
2022-10-23T18:22:43.645Z,9.94
2022-10-23T18:25:12.070Z,9.40
2022-10-23T18:27:42.367Z,9.36
2022-10-23T18:30:14.656Z,11.02
2022-10-23T18:32:44.945Z,12.53
2022-10-23T18:35:13.142Z,13.43
2022-10-23T18:37:42.356Z,13.18
2022-10-23T18:40:15.056Z,11.95
2022-10-23T18:42:45.097Z,10.90
2022-10-23T18:45:23.273Z,10.10
2022-10-23T18:47:52.138Z,9.43
2022-10-23T18:50:24.259Z,9.44
2022-10-23T18:52:58.529Z,11.17
2022-10-23T18:55:27.888Z,12.64
2022-10-23T18:58:03.725Z,13.56
2022-10-23T19:00:31.370Z,13.70
2022-10-23T19:03:02.703Z,12.59
2022-10-23T19:05:33.661Z,11.53
2022-10-23T19:08:04.498Z,10.74
2022-10-23T19:10:35.815Z,10.11
2022-10-23T19:13:05.912Z,9.58
2022-10-23T19:15:39.042Z,9.67
2022-10-23T19:18:08.683Z,11.47
2022-10-23T19:20:38.507Z,12.98
2022-10-23T19:23:10.680Z,13.58
2022-10-23T19:25:45.568Z,12.60
2022-10-23T19:28:14.454Z,11.44
2022-10-23T19:30:43.660Z,10.58
2022-10-23T19:33:18.258Z,9.90
2022-10-23T19:35:49.059Z,9.90
2022-10-23T19:38:20.038Z,11.62
2022-10-23T19:40:48.261Z,13.15
2022-10-23T19:43:17.302Z,13.77
2022-10-23T19:45:46.272Z,12.82
2022-10-23T19:48:16.306Z,11.71
2022-10-23T19:50:49.807Z,10.79
2022-10-23T19:53:19.860Z,10.14
2022-10-23T19:55:47.527Z,10.13
2022-10-23T19:58:17.155Z,11.77
2022-10-23T20:00:47.144Z,13.30
2022-10-23T20:03:15.758Z,13.82
2022-10-23T20:05:48.531Z,12.85
2022-10-23T20:08:16.279Z,11.77
2022-10-23T20:10:46.921Z,10.99
2022-10-23T20:13:20.434Z,10.38
2022-10-23T20:15:48.847Z,9.86
2022-10-23T20:18:17.585Z,9.91
2022-10-23T20:20:46.774Z,11.54
2022-10-23T20:23:15.850Z,13.03
2022-10-23T20:25:44.000Z,13.60
2022-10-23T20:28:14.448Z,12.63
2022-10-23T20:30:48.423Z,11.56
2022-10-23T20:33:16.426Z,10.74
2022-10-23T20:35:45.673Z,10.17
2022-10-23T20:38:13.378Z,10.13
2022-10-23T20:40:41.865Z,11.64
2022-10-23T20:43:17.033Z,13.04
2022-10-23T20:45:47.608Z,13.49
2022-10-23T20:48:15.872Z,12.47
2022-10-23T20:50:44.150Z,11.38
2022-10-23T20:53:12.158Z,10.56
2022-10-23T20:55:43.818Z,9.95
2022-10-23T20:58:11.907Z,9.85
2022-10-23T21:00:39.903Z,11.34
2022-10-23T21:03:11.251Z,12.85
2022-10-23T21:05:39.577Z,13.47
2022-10-23T21:08:08.276Z,12.56
2022-10-23T21:10:36.551Z,11.49
2022-10-23T21:13:07.108Z,10.68
2022-10-23T21:15:34.816Z,10.07
2022-10-23T21:18:14.627Z,10.00
2022-10-23T21:20:55.060Z,11.65
2022-10-23T21:23:25.181Z,12.89
2022-10-23T21:25:54.052Z,13.39
2022-10-23T21:28:22.337Z,12.44
2022-10-23T21:30:50.215Z,11.38
2022-10-23T21:33:19.161Z,10.59
2022-10-23T21:35:57.826Z,9.98
2022-10-23T21:38:27.333Z,9.88
2022-10-23T21:41:09.875Z,11.35
2022-10-23T21:43:38.283Z,12.81
2022-10-23T21:46:17.843Z,13.66
2022-10-23T21:48:48.423Z,13.55
2022-10-23T21:51:32.827Z,12.40
2022-10-23T21:54:01.323Z,11.27
2022-10-23T21:56:45.177Z,10.50
2022-10-23T21:59:24.264Z,10.34
2022-10-23T22:01:53.240Z,11.90
2022-10-23T22:04:24.261Z,13.16
2022-10-23T22:06:52.780Z,13.77
2022-10-23T22:09:23.519Z,13.79
2022-10-23T22:11:53.265Z,12.63
2022-10-23T22:14:23.675Z,11.39
2022-10-23T22:16:52.315Z,10.37
2022-10-23T22:19:24.997Z,10.32
2022-10-23T22:21:54.976Z,12.48
2022-10-23T22:24:24.671Z,13.76
2022-10-23T22:26:56.809Z,13.93
2022-10-23T22:29:29.711Z,12.76
2022-10-23T22:31:58.849Z,11.57
2022-10-23T22:37:23.494Z,9.90
2022-10-23T22:39:54.831Z,10.13
2022-10-23T22:42:25.142Z,12.09
2022-10-23T22:44:52.812Z,13.36
2022-10-23T22:47:22.080Z,13.72
2022-10-23T22:49:51.554Z,12.54
2022-10-23T22:52:23.245Z,11.33
2022-10-23T22:54:50.896Z,10.36
2022-10-23T22:57:22.710Z,10.85
2022-10-23T22:59:50.975Z,12.48
2022-10-23T23:02:21.375Z,13.43
2022-10-23T23:04:49.849Z,13.62
2022-10-23T23:07:21.558Z,12.52
2022-10-23T23:09:49.653Z,11.35
2022-10-23T23:12:20.674Z,10.45
2022-10-23T23:14:50.405Z,9.77
2022-10-23T23:17:20.041Z,9.83
2022-10-23T23:19:48.365Z,11.81
2022-10-23T23:22:18.667Z,13.08
2022-10-23T23:24:47.565Z,13.34
2022-10-23T23:27:17.140Z,12.27
2022-10-23T23:29:48.680Z,11.09
2022-10-23T23:32:16.761Z,10.18
2022-10-23T23:34:47.172Z,9.52
2022-10-23T23:37:15.517Z,9.63
2022-10-23T23:39:44.728Z,11.77
2022-10-23T23:42:19.846Z,13.56
2022-10-23T23:44:55.987Z,14.10
2022-10-23T23:47:31.385Z,12.82
2022-10-23T23:50:03.576Z,11.65
2022-10-23T23:52:35.179Z,10.80
2022-10-23T23:55:03.599Z,10.12
2022-10-23T23:57:33.950Z,10.15
